NetherlandsFixed distance
Kennedymars - prestatie
15 Apr1995
Distance
80km
Finishers
3331 men2 women
Winning time
8:52:26h
Median pace
7.75km/h
Pace distribution
33 finishers · 6.71–9.02 km/h · mean 7.72
Every finisher ran the same 80 km course, so these paces are directly comparable.
Histogram of finisher pace. 33 finishers ranged from 6.71 to 9.02 kilometres per hour, with a mean of 7.72 and a median of 7.75. The busiest band is 7.5 to 8.0 kilometres per hour, with 10 finishers.
Results
Ranks 1–33 of 33
| Rank | Runner | Time | Pace | Cat. | Placing |
|---|---|---|---|---|---|
| 1 | Interl. | 8:52:26h | 9.02 | M45 | 1st M · 1st M45 |
| 2 | RWV | 8:58:04h | 8.92 | — | 2nd M |
| 3 | *Helmond | 9:05:56h | 8.79 | M50 | 3rd M · 1st M50 |
| 4 | *Voerendaal | 9:06:44h | 8.78 | — | 4th M |
| 5 | *Spaubeek | 9:28:40h | 8.44 | — | 5th M |
| 6 | *Landgraaf | 9:35:01h | 8.35 | — | 6th M |
| 7 | RWV | 9:42:20h | 8.24 | M40 | 7th M · 1st M40 |
| 8 | *Spaubeek | 9:47:16h | 8.17 | — | 1st F |
| 9 | Spaubeek | 9:47:16h | 8.17 | — | 8th M |
| 10 | *Spaubeek | 9:55:47h | 8.06 | M60 | 9th M · 1st M60 |
| 11 | *Brunssum | 10:00:26h | 7.99 | — | 10th M |
| 12 | *Boukoul | 10:05:21h | 7.93 | — | 11th M |
| 13 | *Munstergeleen | 10:06:00h | 7.92 | — | 12th M |
| 14 | *Ulestraten | 10:10:13h | 7.87 | — | 13th M |
| 15 | DEN Bosch | 10:17:25h | 7.77 | — | 14th M |
| 16 | *Voerendaal | 10:18:57h | 7.75 | — | 15th M |
| 17 | *Munstergeleen | 10:19:37h | 7.75 | — | 16th M |
| 18 | *Deurne | 10:20:35h | 7.74 | — | 17th M |
| 19 | *Roosteren | 10:29:22h | 7.63 | — | 18th M |
| 20 | RWV | 10:30:09h | 7.62 | M65 | 19th M · 1st M65 |
| 21 | *Kaatsheuvel | 10:42:35h | 7.47 | M35 | 20th M · 1st M35 |
| 22 | *Breda | 10:46:58h | 7.42 | — | 21st M |
| 23 | *Lisse | 10:53:08h | 7.35 | — | 22nd M |
| 24 | *Best | 11:07:50h | 7.19 | — | 2nd F |
| 25 | *Boekel | 11:07:50h | 7.19 | — | 23rd M |
| 26 | Olat | 11:17:15h | 7.09 | — | 24th M |
| 27 | *Elsloo | 11:29:40h | 6.96 | — | 25th M |
| 28 | *Venray | 11:33:30h | 6.92 | — | 26th M |
| 29 | *Maashees | 11:34:40h | 6.91 | — | 27th M |
| 30 | DE LAT | 11:36:08h | 6.89 | — | 28th M |
| 31 | RWV | 11:39:00h | 6.87 | — | 29th M |
| 32 | *Loon OP Zand | 11:39:25h | 6.86 | — | 30th M |
| 33 | *Deurne | 11:55:20h | 6.71 | — | 31st M |
- 1Interl.1st M · 1st M45Time8:52:26hPace9.02Cat.M45
- 2RWV2nd MTime8:58:04hPace8.92
- 3*Helmond3rd M · 1st M50Time9:05:56hPace8.79Cat.M50
- 4*Voerendaal4th MTime9:06:44hPace8.78
- 5*Spaubeek5th MTime9:28:40hPace8.44
- 6*Landgraaf6th MTime9:35:01hPace8.35
- 7RWV7th M · 1st M40Time9:42:20hPace8.24Cat.M40
- 8*Spaubeek1st FTime9:47:16hPace8.17
- 9Spaubeek8th MTime9:47:16hPace8.17
- 10*Spaubeek9th M · 1st M60Time9:55:47hPace8.06Cat.M60
- 11*Brunssum10th MTime10:00:26hPace7.99
- 12*Boukoul11th MTime10:05:21hPace7.93
- 13*Munstergeleen12th MTime10:06:00hPace7.92
- 14*Ulestraten13th MTime10:10:13hPace7.87
- 15DEN Bosch14th MTime10:17:25hPace7.77
- 16*Voerendaal15th MTime10:18:57hPace7.75
- 17*Munstergeleen16th MTime10:19:37hPace7.75
- 18*Deurne17th MTime10:20:35hPace7.74
- 19*Roosteren18th MTime10:29:22hPace7.63
- 20RWV19th M · 1st M65Time10:30:09hPace7.62Cat.M65
- 21*Kaatsheuvel20th M · 1st M35Time10:42:35hPace7.47Cat.M35
- 22*Breda21st MTime10:46:58hPace7.42
- 23*Lisse22nd MTime10:53:08hPace7.35
- 24*Best2nd FTime11:07:50hPace7.19
- 25*Boekel23rd MTime11:07:50hPace7.19
- 26Olat24th MTime11:17:15hPace7.09
- 27*Elsloo25th MTime11:29:40hPace6.96
- 28*Venray26th MTime11:33:30hPace6.92
- 29*Maashees27th MTime11:34:40hPace6.91
- 30DE LAT28th MTime11:36:08hPace6.89
- 31RWV29th MTime11:39:00hPace6.87
- 32*Loon OP Zand30th MTime11:39:25hPace6.86
- 33*Deurne31st MTime11:55:20hPace6.71